Home > Products > Valid Products > TAF

000
FTUS44 KLIX 160500
TAFMSY
TAF
KMSY 160531Z 1606/1706 02018G24KT P6SM SKC
     FM161000 07011KT P6SM SKC
     FM162200 11009KT P6SM FEW250=



000
FTUS44 KLIX 160500
TAFNEW
TAF
KNEW 160531Z 1606/1706 02023KT P6SM SKC
     FM161300 07016KT P6SM SKC
     FM161900 10009KT P6SM FEW250=



000
FTUS44 KLIX 160500
TAFNEW
TAF
KNEW 160531Z 1606/1706 02023KT P6SM SKC
     FM161300 07016KT P6SM SKC
     FM161900 10009KT P6SM FEW250=



000
FTUS44 KLIX 160500
TAFMCB
TAF
KMCB 160531Z 1606/1706 36004KT P6SM SKC
     FM161200 08006KT P6SM SKC=



000
FTUS44 KLIX 160500
TAFGPT
TAF
KGPT 160531Z 1606/1706 35008KT P6SM SKC
     FM161300 06010KT P6SM SKC
     FM161700 10008KT P6SM SKC=



000
FTUS44 KLIX 160500
TAFBTR
TAF
KBTR 160531Z 1606/1706 03007KT P6SM SKC
     FM161700 12006KT P6SM FEW250=



000
FTUS44 KLIX 160300 AAA
TAFMSY
TAF AMD
KMSY 160326Z 1603/1624 36013G22KT P6SM SCT250
     FM161200 07011KT P6SM SKC
     FM162100 09007KT P6SM FEW250=



000
FTUS44 KLIX 152300
TAFNEW
TAF
KNEW 152326Z 1600/1624 34015G24KT P6SM SKC
     FM160600 03015KT P6SM SKC
     FM161400 07012KT P6SM SKC
     FM162100 11009KT P6SM FEW250=



000
FTUS44 KLIX 152300
TAFMCB
TAF
KMCB 152326Z 1600/1624 36013KT P6SM SKC
     FM160700 03005KT P6SM SKC
     FM161400 09007KT P6SM SKC=



000
FTUS44 KLIX 152300
TAFBTR
TAF
KBTR 152326Z 1600/1624 VRB06KT P6SM SKC
     FM161100 06004KT P6SM SKC
     FM161400 09008KT P6SM SKC=



000
FTUS44 KLIX 152300
TAFNEW
TAF
KNEW 152326Z 1600/1624 34015G24KT P6SM SKC
     FM160600 03015KT P6SM SKC
     FM161400 07012KT P6SM SKC
     FM162100 11009KT P6SM FEW250=



000
FTUS44 KLIX 152300
TAFMSY
TAF
KMSY 152326Z 1600/1624 36014G20KT P6SM BKN250
     FM160200 03012KT P6SM SKC
     FM161400 07011KT P6SM SKC
     FM162100 09007KT P6SM FEW250=



000
FTUS44 KLIX 152300
TAFGPT
TAF
KGPT 152326Z 1600/1624 36013KT P6SM SKC
     FM160800 03009KT P6SM SKC
     FM161400 07010KT P6SM SKC
     FM161900 11008KT P6SM SKC=



000
FTUS44 KLIX 151700
TAFNEW
TAF
KNEW 151725Z 1518/1618 36021G32KT P6SM FEW029
     FM160500 03018G26KT P6SM SKC
     FM161400 06015KT P6SM SKC=



000
FTUS44 KLIX 151700
TAFMCB
TAF
KMCB 151725Z 1518/1618 01016G23KT P6SM SKC
     FM152300 35009KT P6SM SKC
     FM161400 09006KT P6SM SKC=



000
FTUS44 KLIX 151700
TAFMSY
TAF
KMSY 151725Z 1518/1618 35017G27KT P6SM SKC
     FM160000 36014KT P6SM SKC
     FM160800 04014KT P6SM SKC
     FM161400 07013KT P6SM SKC=



000
FTUS44 KLIX 151700
TAFGPT
TAF
KGPT 151725Z 1518/1618 35019G28KT P6SM SCT025
     FM160600 03013KT P6SM SKC
     FM161400 06011KT P6SM SKC=



000
FTUS44 KLIX 151700
TAFNEW
TAF
KNEW 151725Z 1518/1618 36021G32KT P6SM FEW029
     FM160500 03018G26KT P6SM SKC
     FM161400 06015KT P6SM SKC=



000
FTUS44 KLIX 151700
TAFBTR
TAF
KBTR 151725Z 1518/1618 02012G23KT P6SM SKC
     FM152300 35010KT P6SM SKC
     FM160200 36005KT P6SM SKC
     FM161400 09008KT P6SM SKC=



000
FTUS44 KLIX 151100
TAFGPT
TAF
KGPT 151124Z 1512/1612 34016G26KT P6SM OVC018
     FM151600 35016G26KT P6SM SCT250
     FM160000 36012KT P6SM SKC
     FM160900 04011KT P6SM SKC=



000
FTUS44 KLIX 151100
TAFMCB
TAF
KMCB 151124Z 1512/1612 34012KT P6SM BKN018
     FM151430 34013KT P6SM BKN250
     FM151530 35013KT P6SM SCT250
     FM152300 35009KT P6SM SKC
     FM160200 36005KT P6SM SKC=



000
FTUS44 KLIX 151100
TAFNEW
TAF
KNEW 151124Z 1512/1612 34025G35KT P6SM OVC020
     FM151600 35022G30KT P6SM SCT250
     FM160500 03018G26KT P6SM SKC=



000
FTUS44 KLIX 151100
TAFBTR
TAF
KBTR 151124Z 1512/1612 34011KT P6SM BKN025
     FM151500 35013KT P6SM SCT250
     FM152300 35009KT P6SM SKC
     FM160200 36005KT P6SM SKC=



000
FTUS44 KLIX 151100
TAFNEW
TAF
KNEW 151124Z 1512/1612 34025G35KT P6SM OVC020
     FM151600 35022G30KT P6SM SCT250
     FM160500 03018G26KT P6SM SKC=



000
FTUS44 KLIX 151100
TAFMSY
TAF
KMSY 151124Z 1512/1612 34020G29KT P6SM OVC020
     FM151500 35020G29KT P6SM BKN250
     FM151600 35020G28KT P6SM SCT250
     FM152300 36014KT P6SM FEW250
     FM160800 04014KT P6SM SKC=



000
FTUS44 KLIX 150500
TAFBTR
TAF
KBTR 150525Z 1506/1606 34011KT P6SM OVC013
     FM151400 35011KT P6SM SCT250
     FM160000 35007KT P6SM SKC
     FM160500 VRB03KT P6SM SKC=



000
FTUS44 KLIX 150500
TAFMCB
TAF
KMCB 150525Z 1506/1606 34012KT P6SM OVC010
     FM151400 35013KT P6SM SCT250
     FM152300 35008KT P6SM SKC
     FM160500 02004KT P6SM SKC=



000
FTUS44 KLIX 150500
TAFNEW
TAF
KNEW 150525Z 1506/1606 33022G30KT 4SM -RA OVC009
     FM150800 34024G34KT P6SM OVC010
     FM151500 35023G32KT P6SM SCT250
     FM152100 36017KT P6SM FEW250=



000
FTUS44 KLIX 150500
TAFMSY
TAF
KMSY 150525Z 1506/1606 33020G29KT 3SM RA OVC010
     FM150800 34023G33KT P6SM OVC010
     FM151100 34023G32KT P6SM OVC250
     FM151500 35021G29KT P6SM SCT250
     FM152100 36015KT P6SM FEW250=



000
FTUS44 KLIX 150500
TAFGPT
TAF
KGPT 150525Z 1506/1606 33015KT 2SM RA OVC009
     FM150800 34017G28KT 6SM -SHRA OVC010
     FM150900 34018G28KT P6SM OVC010
     FM151500 34019G27KT P6SM OVC250
     FM151700 35018G26KT P6SM SCT250
     FM152300 36013KT P6SM FEW250=



000
FTUS44 KLIX 150500
TAFNEW
TAF
KNEW 150525Z 1506/1606 33022G30KT 4SM -RA OVC009
     FM150800 34024G34KT P6SM OVC010
     FM151500 35023G32KT P6SM SCT250
     FM152100 36017KT P6SM FEW250=



000
FTUS44 KLIX 150200 AAD
TAFBTR
TAF AMD
KBTR 150257Z 1503/1524 33010G20KT 6SM -RA BR SCT009 BKN013
      TEMPO 1503/1504 1SM TSRA BR OVC008CB
     FM150600 34013G23KT P6SM OVC015
     FM151400 35012KT P6SM SCT050
     FM152300 35008KT P6SM SKC=



000
FTUS44 KLIX 150200 AAH
TAFGPT
TAF AMD
KGPT 150256Z 1503/1524 06012KT P6SM -RA BKN006 OVC035
     FM150400 36013G23KT 5SM -SHRA BR VCTS BKN008CB
     FM150800 35015G25KT P6SM OVC008
     FM151200 34020G30KT P6SM OVC015
     FM151600 35018G28KT P6SM SCT035=



000
FTUS44 KLIX 150200 AAG
TAFGPT
TAF AMD
KGPT 150225Z 1502/1524 06012KT P6SM -RA SCT007 OVC035
     FM150400 36013G23KT 5SM -SHRA BR VCTS BKN008CB
     FM150800 35015G25KT P6SM OVC008
     FM151200 34020G30KT P6SM OVC015
     FM151600 35018G28KT P6SM SCT035=



000
FTUS44 KLIX 150200 AAD
TAFMCB
TAF AMD
KMCB 150217Z 1502/1524 35013G23KT 6SM -RA BR OVC008
      TEMPO 1502/1504 3SM SHRA BR BKN008
     FM150400 34015G25KT P6SM OVC005
     FM151400 35015G25KT P6SM SCT015
     FM151500 35015G25KT P6SM SCT250
     FM152300 35008KT P6SM SKC=



000
FTUS44 KLIX 150200 AAF
TAFGPT
TAF AMD
KGPT 150215Z 1502/1524 06012KT P6SM -RA BKN007 OVC040
     FM150400 36013G23KT 5SM -SHRA BR VCTS BKN008CB
     FM150800 35015G25KT P6SM OVC008
     FM151200 34020G30KT P6SM OVC015
     FM151600 35018G28KT P6SM SCT035=



000
FTUS44 KLIX 150200 AAE
TAFGPT
TAF AMD
KGPT 150202Z 1502/1524 06012KT P6SM -TSRA BKN007 OVC017CB
     FM150400 36013G23KT 5SM -SHRA BR VCTS BKN008CB
     FM150800 35015G25KT P6SM OVC008
     FM151200 34020G30KT P6SM OVC015
     FM151600 35018G28KT P6SM SCT035=



000
FTUS44 KLIX 150200 AAF
TAFNEW
TAF AMD
KNEW 150202Z 1502/1524 35008KT P6SM -RA SCT007 BKN060
     FM150300 33022G32KT 5SM -RA BR VCTS OVC008CB
     FM150600 34035G45KT P6SM OVC008
     FM151500 35025G35KT P6SM SCT025
     FM151800 36020G30KT P6SM FEW250=



000
FTUS44 KLIX 150200 AAF
TAFNEW
TAF AMD
KNEW 150202Z 1502/1524 35008KT P6SM -RA SCT007 BKN060
     FM150300 33022G32KT 5SM -RA BR VCTS OVC008CB
     FM150600 34035G45KT P6SM OVC008
     FM151500 35025G35KT P6SM SCT025
     FM151800 36020G30KT P6SM FEW250=



000
FTUS44 KLIX 150100 AAE
TAFNEW
TAF AMD
KNEW 150135Z 1502/1524 35008KT 6SM -RA BR SCT007 BKN015
     FM150300 33022G32KT 5SM -RA BR VCTS OVC008CB
     FM150600 34035G45KT P6SM OVC008
     FM151500 35025G35KT P6SM SCT025
     FM151800 36020G30KT P6SM FEW250=



000
FTUS44 KLIX 150100 AAE
TAFNEW
TAF AMD
KNEW 150135Z 1502/1524 35008KT 6SM -RA BR SCT007 BKN015
     FM150300 33022G32KT 5SM -RA BR VCTS OVC008CB
     FM150600 34035G45KT P6SM OVC008
     FM151500 35025G35KT P6SM SCT025
     FM151800 36020G30KT P6SM FEW250=



000
FTUS44 KLIX 150100 AAD
TAFGPT
TAF AMD
KGPT 150134Z 1502/1524 06005KT P6SM -TSRA SCT008 BKN012CB
     FM150200 06012KT P6SM -RA SCT015 OVC070
     FM150400 36013G23KT 5SM -SHRA BR VCTS BKN008CB
     FM150800 35015G25KT P6SM OVC008
     FM151200 34020G30KT P6SM OVC015
     FM151600 35018G28KT P6SM SCT035=



000
FTUS44 KLIX 150100 AAC
TAFBTR
TAF AMD
KBTR 150132Z 1502/1524 33011KT P6SM VCSH BKN009
     FM150200 33010G20KT 5SM SHRA BR OVC008
      TEMPO 1502/1504 1SM TSRA BR OVC008CB
     FM150600 34013G23KT P6SM OVC015
     FM151400 35012KT P6SM SCT050
     FM152300 35008KT P6SM SKC=



000
FTUS44 KLIX 150100 AAF
TAFMSY
TAF AMD
KMSY 150132Z 1502/1524 35010G20KT P6SM SCT015 OVC070
     FM150300 33017G27KT 5SM -SHRA BR VCTS OVC008CB
     FM150600 34020G30KT P6SM OVC008
     FM151500 35020G30KT P6SM SCT025
     FM151800 36020G30KT P6SM FEW250=



000
FTUS44 KLIX 150100 AAC
TAFMCB
TAF AMD
KMCB 150104Z 1501/1524 35013G23KT 6SM -SHRA BR SCT008 BKN050
      TEMPO 1501/1504 3SM TSRA BR BKN008CB
     FM150400 34015G25KT P6SM OVC005
     FM151400 35015G25KT P6SM SCT015
     FM151500 35015G25KT P6SM SCT250
     FM152300 35008KT P6SM SKC=



000
FTUS44 KLIX 150100 AAE
TAFMSY
TAF AMD
KMSY 150100Z 1501/1524 32015G25KT P6SM -RA SCT015 BKN018
     FM150300 33020G30KT 5SM -SHRA BR VCTS OVC008CB
     FM150600 34020G30KT P6SM OVC008
     FM151500 35020G30KT P6SM SCT025
     FM151800 36020G30KT P6SM FEW250=



000
FTUS44 KLIX 150100 AAD
TAFNEW
TAF AMD
KNEW 150100Z 1501/1524 35008KT P6SM OVC006
     FM150300 33025G35KT 5SM -RA BR VCTS OVC008CB
     FM150600 34035G45KT P6SM OVC008
     FM151500 35025G35KT P6SM SCT025
     FM151800 36020G30KT P6SM FEW250=



000
FTUS44 KLIX 150100 AAD
TAFNEW
TAF AMD
KNEW 150100Z 1501/1524 35008KT P6SM OVC006
     FM150300 33025G35KT 5SM -RA BR VCTS OVC008CB
     FM150600 34035G45KT P6SM OVC008
     FM151500 35025G35KT P6SM SCT025
     FM151800 36020G30KT P6SM FEW250=



000
FTUS44 KLIX 150000 AAB
TAFBTR
TAF AMD
KBTR 150050Z 1501/1524 34013G23KT P6SM VCSH BKN015 OVC090
     FM150200 34013G23KT 5SM SHRA BR VCTS BKN010CB
     FM150600 34013G23KT P6SM OVC015
     FM151400 35012KT P6SM SCT050
     FM152300 35008KT P6SM SKC=



000
FTUS44 KLIX 150000 AAC
TAFGPT
TAF AMD
KGPT 150029Z 1500/1524 04015KT 2SM TSRA BR BKN010CB OVC020
      TEMPO 1500/1502 VRB15G30KT 1/2SM +TSRA FG OVC004CB
     FM150200 32020G30KT 3SM TSRA OVC010CB
     FM150600 33020G30KT P6SM -RA OVC008
     FM151200 34020G30KT P6SM OVC015
     FM151600 35018G28KT P6SM SCT035=



000
FTUS44 KLIX 150000 AAC
TAFNEW
TAF AMD
KNEW 150025Z 1500/1524 35008KT 6SM -RA BR BKN007 OVC025
      TEMPO 1500/1503 3SM -RA BR
     FM150300 33025G35KT 5SM -RA BR OVC008
     FM150600 34035G45KT P6SM OVC008
     FM151500 35025G35KT P6SM SCT025
     FM151800 36020G30KT P6SM FEW250=



000
FTUS44 KLIX 150000 AAC
TAFNEW
TAF AMD
KNEW 150025Z 1500/1524 35008KT 6SM -RA BR BKN007 OVC025
      TEMPO 1500/1503 3SM -RA BR
     FM150300 33025G35KT 5SM -RA BR OVC008
     FM150600 34035G45KT P6SM OVC008
     FM151500 35025G35KT P6SM SCT025
     FM151800 36020G30KT P6SM FEW250=



000
FTUS44 KLIX 150000 AAB
TAFNEW
TAF AMD
KNEW 150013Z 1500/1524 32011KT 3SM TSRA BKN015CB OVC025
      TEMPO 1500/1503 1SM +TSRA BKN005CB
     FM150300 33025G35KT 5SM -RA BR OVC008
     FM150600 34035G45KT P6SM OVC008
     FM151500 35025G35KT P6SM SCT025
     FM151800 36020G30KT P6SM FEW250=



000
FTUS44 KLIX 150000 AAB
TAFNEW
TAF AMD
KNEW 150013Z 1500/1524 32011KT 3SM TSRA BKN015CB OVC025
      TEMPO 1500/1503 1SM +TSRA BKN005CB
     FM150300 33025G35KT 5SM -RA BR OVC008
     FM150600 34035G45KT P6SM OVC008
     FM151500 35025G35KT P6SM SCT025
     FM151800 36020G30KT P6SM FEW250=



000
FTUS44 KLIX 150000 AAD
TAFMSY
TAF AMD
KMSY 150013Z 1500/1524 30010KT 6SM -RA BR BKN022
      TEMPO 1500/1503 5SM SHRA BR BKN007
     FM150300 33020G30KT 5SM -RA BR OVC008
     FM150600 34020G30KT P6SM OVC008
     FM151500 35020G30KT P6SM SCT025
     FM151800 36020G30KT P6SM FEW250=



000
FTUS44 KLIX 150000 AAC
TAFMSY
TAF AMD
KMSY 150010Z 1500/1524 30011KT 6SM -TSRA BR FEW007CB BKN030
      TEMPO 1500/1503 5SM SHRA BR BKN007
     FM150300 33020G30KT 5SM -RA BR OVC008
     FM150600 34020G30KT P6SM OVC008
     FM151500 35020G30KT P6SM SCT025
     FM151800 36020G30KT P6SM FEW250=



000
FTUS44 KLIX 150000 AAB
TAFGPT
TAF AMD
KGPT 150010Z 1500/1524 04015KT 3SM RA BR BKN010 OVC020
      TEMPO 1500/1504 VRB15G25KT 2SM +TSRA OVC004CB
     FM150400 32020G30KT 3SM TSRA OVC010CB
     FM150600 33020G30KT P6SM -RA OVC008
     FM151200 34020G30KT P6SM OVC015
     FM151600 35018G28KT P6SM SCT035=



000
FTUS44 KLIX 150000 AAB
TAFMCB
TAF AMD
KMCB 150009Z 1500/1524 35013G23KT 5SM -RA BR SCT008 BKN050
      TEMPO 1500/1502 2SM RA BR
     FM150400 34015G25KT P6SM OVC005
     FM151400 35015G25KT P6SM SCT015
     FM151500 35015G25KT P6SM SCT250
     FM152300 35008KT P6SM SKC=



000
FTUS44 KLIX 150000 AAA
TAFGPT
TAF AMD
KGPT 150001Z 1500/1524 04015KT 3SM TSRA BKN010CB OVC020
      TEMPO 1500/1504 VRB15G25KT 1SM +TSRA OVC004CB
     FM150400 32020G30KT 3SM TSRA OVC010CB
     FM150600 33020G30KT P6SM -RA OVC008
     FM151200 34020G30KT P6SM OVC015
     FM151600 35018G28KT P6SM SCT035=



000
FTUS44 KLIX 150000 AAB
TAFMSY
TAF AMD
KMSY 150000Z 1500/1524 30010G20KT 6SM -SHRA BR BKN025 OVC035
      TEMPO 1500/1503 3SM TSRA BR BKN015CB
     FM150300 33020G30KT 5SM -RA BR OVC008
     FM150600 34020G30KT P6SM OVC008
     FM151500 35020G30KT P6SM SCT025
     FM151800 36020G30KT P6SM FEW250=



000
FTUS44 KLIX 142300 AAA
TAFMCB
TAF AMD
KMCB 142358Z 1500/1524 33013G23KT 5SM -TSRA SCT005 BKN030CB OVC040
      TEMPO 1500/1502 2SM TSRA BR OVC025CB
     FM150400 34015G25KT P6SM OVC005
     FM151400 35015G25KT P6SM SCT015
     FM151500 35015G25KT P6SM SCT250
     FM152300 35008KT P6SM SKC=



000
FTUS44 KLIX 142300 AAA
TAFNEW
TAF AMD
KNEW 142357Z 1500/1524 30015G25KT 3SM TSRA BKN015CB OVC025
      TEMPO 1500/1503 1SM +TSRA SCT015CB OVC020
     FM150300 33025G35KT 5SM -RA BR OVC008
     FM150600 34035G45KT P6SM OVC008
     FM151500 35025G35KT P6SM SCT025
     FM151800 36020G30KT P6SM FEW250=



000
FTUS44 KLIX 142300 AAA
TAFNEW
TAF AMD
KNEW 142357Z 1500/1524 30015G25KT 3SM TSRA BKN015CB OVC025
      TEMPO 1500/1503 1SM +TSRA SCT015CB OVC020
     FM150300 33025G35KT 5SM -RA BR OVC008
     FM150600 34035G45KT P6SM OVC008
     FM151500 35025G35KT P6SM SCT025
     FM151800 36020G30KT P6SM FEW250=



000
FTUS44 KLIX 142300 AAA
TAFBTR
TAF AMD
KBTR 142347Z 1500/1524 34010KT P6SM -RA VCSH BKN040
     FM150100 34013G23KT P6SM VCSH OVC008
     FM150600 34013G23KT P6SM OVC015
     FM151400 35012KT P6SM SCT050
     FM152300 35008KT P6SM SKC=



000
FTUS44 KLIX 142300 AAA
TAFMSY
TAF AMD
KMSY 142346Z 1500/1524 30015G25KT 3SM TSRA SCT013 BKN025CB
      TEMPO 1500/1502 27030G40KT 1SM +TSRA BKN010CB OVC020
     FM150300 33020G30KT 5SM -RA BR OVC008
     FM150600 34020G30KT P6SM OVC008
     FM151500 35020G30KT P6SM SCT025
     FM151800 36020G30KT P6SM FEW250=



000
FTUS44 KLIX 142300
TAFGPT
TAF
KGPT 142323Z 1500/1524 15010KT 3SM TSRA BKN010CB OVC020
      TEMPO 1500/1504 VRB15G25KT 1SM +TSRA OVC010CB
     FM150400 32020G30KT 3SM TSRA OVC010CB
     FM150600 33020G30KT P6SM -RA OVC008
     FM151200 34020G30KT P6SM OVC015
     FM151600 35018G28KT P6SM SCT035=



000
FTUS44 KLIX 142300
TAFMSY
TAF
KMSY 142323Z 1500/1524 20015KT 3SM TSRA BKN015CB OVC025
      TEMPO 1500/1502 27030G40KT 1SM +TSRA BKN010CB OVC020
     FM150300 33020G30KT 5SM -RA BR OVC008
     FM150600 34020G30KT P6SM OVC008
     FM151500 35020G30KT P6SM SCT025
     FM151800 36020G30KT P6SM FEW250=



000
FTUS44 KLIX 142300
TAFBTR
TAF
KBTR 142323Z 1500/1524 33015G25KT 5SM -RA BR BKN010 BKN020 OVC050
     FM150400 34013G23KT P6SM OVC008
     FM150600 34013G23KT P6SM OVC015
     FM151400 35012KT P6SM SCT050
     FM152300 35008KT P6SM SKC=



000
FTUS44 KLIX 142300
TAFMCB
TAF
KMCB 142323Z 1500/1524 33010KT 5SM -TSRA SCT005 BKN030CB OVC040
      TEMPO 1500/1502 3SM TSRA BKN015CB OVC025
     FM150400 34015G25KT P6SM OVC005
     FM151400 35015G25KT P6SM SCT015
     FM151500 35015G25KT P6SM SCT250
     FM152300 35008KT P6SM SKC=



000
FTUS44 KLIX 142300
TAFNEW
TAF
KNEW 142323Z 1500/1524 22015G25KT 3SM TSRA BKN015CB OVC025
      TEMPO 1500/1503 27030G40KT 1SM +TSRA BKN010CB OVC020
     FM150300 33025G35KT 5SM -RA BR OVC008
     FM150600 34035G45KT P6SM OVC008
     FM151500 35025G35KT P6SM SCT025
     FM151800 36020G30KT P6SM FEW250=



000
FTUS44 KLIX 142200 AAC
TAFMSY
TAF AMD
KMSY 142248Z 1423/1518 22015G25KT 5SM SHRA BKN010 OVC015
      TEMPO 1500/1504 VRB20G40KT 1SM +TSRA OVC008CB
     FM150800 36025G36KT P6SM OVC008
     FM151600 35019G27KT P6SM SCT008=



000
FTUS44 KLIX 142200 AAB
TAFBTR
TAF AMD
KBTR 142214Z 1422/1518 25010KT P6SM BKN025 BKN040 OVC100
      TEMPO 1422/1424 VRB15G25KT 3SM TSRA OVC015CB
     FM150000 27012KT P6SM SHRA OVC015
      TEMPO 1500/1504 VRB15G35KT 1SM +TSRA OVC008CB
     FM150400 29011KT 4SM SHRA OVC008
     FM151300 36014KT P6SM SCT008=



000
FTUS44 KLIX 142200 AAC
TAFNEW
TAF AMD
KNEW 142214Z 1422/1518 16012KT P6SM SCT035 BKN050 OVC080
      TEMPO 1422/1424 2SM TSRA BKN025CB OVC035
     FM150000 22011KT 5SM SHRA OVC015
      TEMPO 1501/1505 VRB20G40KT 1SM +TSRA OVC008CB
     FM150800 36026G36KT P6SM OVC008
     FM151600 35022G32KT P6SM SCT008=



000
FTUS44 KLIX 142200 AAC
TAFNEW
TAF AMD
KNEW 142214Z 1422/1518 16012KT P6SM SCT035 BKN050 OVC080
      TEMPO 1422/1424 2SM TSRA BKN025CB OVC035
     FM150000 22011KT 5SM SHRA OVC015
      TEMPO 1501/1505 VRB20G40KT 1SM +TSRA OVC008CB
     FM150800 36026G36KT P6SM OVC008
     FM151600 35022G32KT P6SM SCT008=



000
FTUS44 KLIX 142100 AAB
TAFNEW
TAF AMD
KNEW 142135Z 1422/1518 16012KT P6SM SCT035 BKN050 OVC080
     FM150000 22011KT 5SM SHRA OVC015
      TEMPO 1501/1505 VRB20G40KT 1SM +TSRA OVC008CB
     FM150800 36026G36KT P6SM OVC008
     FM151600 35022G32KT P6SM SCT008=



000
FTUS44 KLIX 142100 AAB
TAFMSY
TAF AMD
KMSY 142135Z 1422/1518 16011KT P6SM SCT015 BKN035
     FM150000 22011KT 5SM SHRA OVC015
      TEMPO 1501/1505 VRB20G40KT 1SM +TSRA OVC008CB
     FM150800 36025G36KT P6SM OVC008
     FM151600 35019G27KT P6SM SCT008=



000
FTUS44 KLIX 142100 AAB
TAFNEW
TAF AMD
KNEW 142135Z 1422/1518 16012KT P6SM SCT035 BKN050 OVC080
     FM150000 22011KT 5SM SHRA OVC015
      TEMPO 1501/1505 VRB20G40KT 1SM +TSRA OVC008CB
     FM150800 36026G36KT P6SM OVC008
     FM151600 35022G32KT P6SM SCT008=



000
FTUS44 KLIX 142100 AAA
TAFGPT
TAF AMD
KGPT 142133Z 1422/1518 06007KT P6SM BKN015 OVC025
     FM150000 22011KT 5SM -SHRA OVC015
      TEMPO 1500/1504 VRB20G40KT 1SM +TSRA OVC008CB
     FM150400 35012G22KT P6SM OVC008
     FM151600 35016G26KT P6SM SCT008=



000
FTUS44 KLIX 142100 AAA
TAFMCB
TAF AMD
KMCB 142132Z 1422/1518 13008KT P6SM BKN020
      TEMPO 1423/1502 VRB20G40KT 1SM +TSRA OVC008CB
     FM150200 35015G25KT P6SM OVC008
     FM151600 35016G26KT P6SM SCT008=



000
FTUS44 KLIX 142100 AAA
TAFMSY
TAF AMD
KMSY 142131Z 1422/1518 16011KT P6SM SCT018 BKN090 BKN250
      TEMPO 1422/1424 VRB15G25KT 2SM +TSRA OVC015CB
     FM150000 22011KT 5SM SHRA OVC015
      TEMPO 1501/1505 VRB20G40KT 1SM +TSRA OVC008CB
     FM150800 36025G36KT P6SM OVC008
     FM151600 35019G27KT P6SM SCT008=



000
FTUS44 KLIX 142100 AAA
TAFBTR
TAF AMD
KBTR 142130Z 1422/1518 19010KT P6SM BKN025 BKN040 OVC100
      TEMPO 1422/1424 VRB15G25KT 1SM +TSRA OVC015CB
     FM150000 27012KT P6SM SHRA OVC015
      TEMPO 1500/1504 VRB15G35KT 1SM +TSRA OVC008CB
     FM150400 29011KT 4SM SHRA OVC008
     FM151300 36014KT P6SM SCT008=



000
FTUS44 KLIX 142100 AAA
TAFNEW
TAF AMD
KNEW 142128Z 1421/1518 18012KT P6SM SCT021 BKN028 BKN035
      TEMPO 1421/1424 VRB15G25KT 2SM +TSRA OVC015CB
     FM150000 22011KT 5SM SHRA OVC015
      TEMPO 1501/1505 VRB20G40KT 1SM +TSRA OVC008CB
     FM150800 36026G36KT P6SM OVC008
     FM151600 35022G32KT P6SM SCT008=



000
FTUS44 KLIX 142100 AAA
TAFNEW
TAF AMD
KNEW 142128Z 1421/1518 18012KT P6SM SCT021 BKN028 BKN035
      TEMPO 1421/1424 VRB15G25KT 2SM +TSRA OVC015CB
     FM150000 22011KT 5SM SHRA OVC015
      TEMPO 1501/1505 VRB20G40KT 1SM +TSRA OVC008CB
     FM150800 36026G36KT P6SM OVC008
     FM151600 35022G32KT P6SM SCT008=



000
FTUS44 KLIX 141800 RRA
TAFNEW
TAF
KNEW 141811Z 1418/1518 18012KT P6SM SCT021 BKN028 BKN035
      TEMPO 1420/1424 VRB15G25KT 2SM +TSRA OVC015CB
     FM150000 22011KT 5SM SHRA OVC015
      TEMPO 1501/1505 VRB20G40KT 1SM +TSRA OVC008CB
     FM150500 34025G35KT 5SM SHRA OVC008
     FM150800 36026G36KT P6SM VCSH OVC008
     FM151000 35026G36KT P6SM OVC008
     FM151600 35022G32KT P6SM SCT008=



000
FTUS44 KLIX 141800 RRA
TAFMCB
TAF
KMCB 141811Z 1418/1518 19013KT 5SM RA BKN015
      TEMPO 1418/1422 VRB14G24KT 1SM +TSRA OVC015CB
     FM142200 22011KT 5SM SHRA OVC015
      TEMPO 1422/1502 VRB20G40KT 1SM +TSRA OVC008CB
     FM150200 35015G25KT 5SM SHRA OVC008
     FM151000 35015G25KT P6SM OVC008
     FM151600 35016G26KT P6SM SCT008=



000
FTUS44 KLIX 141800 RRA
TAFNEW
TAF
KNEW 141811Z 1418/1518 18012KT P6SM SCT021 BKN028 BKN035
      TEMPO 1420/1424 VRB15G25KT 2SM +TSRA OVC015CB
     FM150000 22011KT 5SM SHRA OVC015
      TEMPO 1501/1505 VRB20G40KT 1SM +TSRA OVC008CB
     FM150500 34025G35KT 5SM SHRA OVC008
     FM150800 36026G36KT P6SM VCSH OVC008
     FM151000 35026G36KT P6SM OVC008
     FM151600 35022G32KT P6SM SCT008=



000
FTUS44 KLIX 141800 RRA
TAFBTR
TAF
KBTR 141811Z 1418/1518 19010KT P6SM BKN025 BKN040 OVC100
      TEMPO 1418/1422 VRB15G25KT 2SM +TSRA SCT008 OVC015CB
     FM150000 27012KT P6SM SHRA OVC015
      TEMPO 1500/1504 VRB15G35KT 1SM +TSRA OVC008CB
     FM150400 29011KT 4SM SHRA OVC008
     FM151300 36014KT P6SM SCT008=



000
FTUS44 KLIX 141800 RRA
TAFGPT
TAF
KGPT 141811Z 1418/1518 03007KT P6SM OVC014
      TEMPO 1420/1424 VRB14G24KT 1SM +TSRA OVC015CB
     FM150000 22011KT 5SM SHRA OVC015
      TEMPO 1500/1504 VRB20G40KT 1SM +TSRA OVC008CB
     FM150400 35012G22KT 5SM SHRA OVC008
     FM151000 35012G22KT P6SM OVC008
     FM151600 35016G26KT P6SM SCT008=



000
FTUS44 KLIX 141800 RRA
TAFMSY
TAF
KMSY 141811Z 1418/1518 16011KT P6SM SCT018 BKN090 BKN250
      TEMPO 1420/1424 VRB15G25KT 2SM +TSRA OVC015CB
     FM150000 22011KT 5SM SHRA OVC015
      TEMPO 1501/1505 VRB20G40KT 1SM +TSRA OVC008CB
     FM150500 34012G22KT 5SM SHRA OVC008
     FM150800 36025G36KT P6SM VCSH OVC008
     FM151000 35026G36KT P6SM OVC008
     FM151600 35019G27KT P6SM SCT008=



000
FTUS44 KLIX 141700 AAA
TAFMCB
TAF AMD
KMCB 141719Z 1417/1512 09008KT P6SM -RA BKN009 OVC013
      TEMPO 1417/1421 VRB20G30KT 3SM TSRA BKN013CB
     FM142300 28013KT P6SM VCTS OVC015CB
     FM150200 35010KT P6SM -RA OVC015=



000
FTUS44 KLIX 141100 RRA
TAFMCB
TAF
KMCB 141145Z 1412/1512 19007KT P6SM VCSH OVC013
     FM141600 21012KT P6SM VCTS BKN025CB BKN090
     FM141800 21010KT 4SM -TSRA OVC015CB
      TEMPO 1418/1422 VRB20G30KT 3SM TSRA
     FM142300 28013KT P6SM VCTS OVC015CB
     FM150200 35010KT P6SM -RA OVC015=



000
FTUS44 KLIX 141100 RRA
TAFNEW
TAF
KNEW 141145Z 1412/1512 19013KT P6SM SCT012 BKN020
     FM141700 19014KT P6SM VCSH BKN025 OVC150
     FM142000 21012G20KT P6SM VCTS SCT025CB BKN080
      TEMPO 1422/1502 VRB25G35KT 3SM TSRA BKN020CB
     FM150200 36017KT 4SM -TSRA OVC008CB
     FM150600 36025KT P6SM OVC020=



000
FTUS44 KLIX 141100 RRA
TAFNEW
TAF
KNEW 141145Z 1412/1512 19013KT P6SM SCT012 BKN020
     FM141700 19014KT P6SM VCSH BKN025 OVC150
     FM142000 21012G20KT P6SM VCTS SCT025CB BKN080
      TEMPO 1422/1502 VRB25G35KT 3SM TSRA BKN020CB
     FM150200 36017KT 4SM -TSRA OVC008CB
     FM150600 36025KT P6SM OVC020=



000
FTUS44 KLIX 141100 RRA
TAFMSY
TAF
KMSY 141145Z 1412/1512 18012KT P6SM SCT012 BKN020
     FM141700 18013KT P6SM VCSH BKN025 OVC150
     FM142000 19012G20KT P6SM VCTS SCT025CB BKN080
      TEMPO 1422/1502 VRB25G35KT 3SM TSRA BKN020CB
     FM150200 36017KT 4SM -TSRA OVC008CB
     FM150600 36025KT P6SM OVC020=



000
FTUS44 KLIX 141100 RRA
TAFBTR
TAF
KBTR 141145Z 1412/1512 19007KT P6SM SCT013 OVC018
     FM141600 20015G22KT P6SM VCSH SCT014 BKN020
     FM141900 21015G22KT 6SM -SHRA VCTS SCT023CB BKN080
      TEMPO 1419/1422 VRB25G35KT 3SM TSRA BKN020CB
     FM150300 27014G22KT P6SM OVC008
     FM150700 30014G21KT P6SM OVC015=



000
FTUS44 KLIX 141100 RRA
TAFGPT
TAF
KGPT 141145Z 1412/1512 16013KT P6SM FEW008 BKN016
     FM141800 16012KT P6SM VCSH BKN025 OVC150
     FM142100 21011KT P6SM VCTS SCT025CB BKN080
      TEMPO 1422/1502 VRB25G35KT 3SM TSRA BKN020CB
     FM150400 33012KT 5SM -TSRA OVC005CB
     FM150800 34014KT P6SM OVC020=



000
FTUS44 KLIX 140500 RRA
TAFMSY
TAF
KMSY 140540Z 1406/1506 15011KT P6SM SCT040 BKN060
     FM140900 17012G20KT P6SM BKN011 BKN050
     FM141500 19011G21KT P6SM VCSH BKN012
     FM142000 19011G21KT P6SM VCTS SCT025CB BKN080=



000
FTUS44 KLIX 140500 RRA
TAFBTR
TAF
KBTR 140540Z 1406/1506 13010KT P6SM SCT018 BKN035
      TEMPO 1407/1409 BKN018
     FM140900 17007KT P6SM BKN010
     FM141300 19007KT P6SM VCSH BKN018
     FM141900 19011G21KT P6SM VCTS SCT023CB BKN080=



000
FTUS44 KLIX 140500 RRA
TAFGPT
TAF
KGPT 140540Z 1406/1506 16013KT P6SM BKN007 OVC018
     FM141500 18012G22KT P6SM BKN020
     FM142300 18012KT P6SM VCTS BKN025CB BKN080=



000
FTUS44 KLIX 140500 RRA
TAFMCB
TAF
KMCB 140540Z 1406/1506 15012KT P6SM BKN013 BKN020
     FM141000 19009KT P6SM VCSH BKN010
     FM141730 23010KT P6SM VCTS BKN025CB BKN090
     FM142300 28006KT P6SM OVC025=



000
FTUS44 KLIX 140500 RRA
TAFNEW
TAF
KNEW 140540Z 1406/1506 14012KT P6SM SCT040 BKN060
     FM140900 17012G20KT P6SM BKN012 OVC050
     FM141500 19011G21KT P6SM BKN018 OVC060
     FM141700 19012G22KT P6SM VCSH BKN024 BKN080
     FM142200 21011G21KT P6SM VCTS SCT025CB BKN080=



000
FTUS44 KLIX 140500 RRA
TAFNEW
TAF
KNEW 140540Z 1406/1506 14012KT P6SM SCT040 BKN060
     FM140900 17012G20KT P6SM BKN012 OVC050
     FM141500 19011G21KT P6SM BKN018 OVC060
     FM141700 19012G22KT P6SM VCSH BKN024 BKN080
     FM142200 21011G21KT P6SM VCTS SCT025CB BKN080=



000
FTUS44 KLIX 132300 RRA
TAFGPT
TAF
KGPT 132341Z 1400/1424 14013KT P6SM BKN090
     FM141300 17012KT P6SM BKN012
     FM142100 18012KT P6SM VCTS BKN025CB=



000
FTUS44 KLIX 132300 RRA
TAFMCB
TAF
KMCB 132341Z 1400/1424 16013KT P6SM BKN025
     FM140500 16013KT P6SM BKN012
     FM141000 18009KT P6SM VCTS BKN010CB
     FM141300 20010KT P6SM VCSH BKN015
     FM141830 24010KT P6SM VCTS BKN025CB BKN090
     FM142300 28006KT P6SM OVC025=



000
FTUS44 KLIX 132300 RRA
TAFNEW
TAF
KNEW 132341Z 1400/1424 14015KT P6SM BKN250
     FM140900 17012G20KT P6SM OVC008
     FM141500 19011G21KT P6SM VCSH BKN012
     FM142000 19011G21KT P6SM VCTS SCT025CB BKN080=



000
FTUS44 KLIX 132300 RRA
TAFMSY
TAF
KMSY 132341Z 1400/1424 15013KT P6SM BKN050
     FM140900 17012G20KT P6SM OVC008
     FM141500 19011G21KT P6SM VCSH BKN012
     FM142000 19011G21KT P6SM VCTS SCT025CB BKN080=



000
FTUS44 KLIX 132300 RRA
TAFBTR
TAF
KBTR 132341Z 1400/1424 17014KT P6SM BKN050
     FM140500 17008KT P6SM SCT012 BKN040
     FM140900 17007KT P6SM VCSH BKN010
     FM141300 19007KT P6SM VCSH BKN018
     FM141900 19011G21KT P6SM VCTS SCT023CB BKN080=



000
FTUS44 KLIX 132300 RRA
TAFNEW
TAF
KNEW 132341Z 1400/1424 14015KT P6SM BKN250
     FM140900 17012G20KT P6SM OVC008
     FM141500 19011G21KT P6SM VCSH BKN012
     FM142000 19011G21KT P6SM VCTS SCT025CB BKN080=



000
FTUS44 KLIX 131700 RRA
TAFNEW
TAF
KNEW 131739Z 1318/1418 15015KT P6SM BKN250
     FM141300 18014KT P6SM VCTS BKN010CB
     FM141700 20014KT 6SM SHRA BKN022=



000
FTUS44 KLIX 131700 RRA
TAFGPT
TAF
KGPT 131739Z 1318/1418 14014KT P6SM BKN250
     FM140000 14012KT P6SM BKN090
     FM141100 17012KT P6SM VCTS BKN012CB
     FM141600 18015G24KT 6SM SHRA BKN012=



000
FTUS44 KLIX 131700 RRA
TAFMCB
TAF
KMCB 131739Z 1318/1418 17015KT P6SM SCT015 SCT250
      TEMPO 1318/1322 BKN015
     FM140500 16013KT P6SM BKN020
      TEMPO 1406/1410 OVC008
     FM141000 17009KT P6SM VCTS OVC008CB
     FM141300 19009KT 6SM SHRA OVC012=



000
FTUS44 KLIX 131700 RRA
TAFBTR
TAF
KBTR 131739Z 1318/1418 18015KT P6SM SCT025 SCT250
      TEMPO 1318/1322 BKN025
     FM140500 17012KT P6SM VCTS OVC008CB
     FM141200 18008KT P6SM VCTS OVC003CB
     FM141300 19009KT 6SM SHRA OVC008
     FM141600 21013KT P6SM BKN022=



000
FTUS44 KLIX 131700 RRA
TAFMSY
TAF
KMSY 131739Z 1318/1418 16015KT P6SM BKN250
     FM132200 16015KT P6SM BKN090
     FM141300 18012KT P6SM VCTS BKN014CB
     FM141700 20014KT 6SM SHRA BKN022=



000
FTUS44 KLIX 131700 RRA
TAFNEW
TAF
KNEW 131739Z 1318/1418 15015KT P6SM BKN250
     FM141300 18014KT P6SM VCTS BKN010CB
     FM141700 20014KT 6SM SHRA BKN022=



000
FTUS44 KLIX 131300 AAA
TAFGPT
TAF AMD
KGPT 131323Z 1313/1412 13010KT P6SM SKC
     FM131400 15012KT P6SM SCT015 SCT060
     FM131800 16017G26KT P6SM SCT028
     FM140100 16015G21KT P6SM OVC008
     FM141000 17013KT P6SM BKN005 OVC012=



000
FTUS44 KLIX 131100 RRA
TAFGPT
TAF
KGPT 131143Z 1312/1412 13008KT P6SM SCT006
      TEMPO 1312/1314 BKN006
     FM131400 15012KT P6SM SCT015 SCT060
     FM131800 16017G26KT P6SM SCT028
     FM140100 16015G21KT P6SM OVC008
     FM141000 17013KT P6SM BKN005 OVC012=



000
FTUS44 KLIX 131100 RRA
TAFMSY
TAF
KMSY 131143Z 1312/1412 14007KT P6SM FEW025 SCT250
     FM131400 15011KT P6SM BKN025
     FM131700 17016G23KT P6SM BKN035
     FM140300 16012KT P6SM OVC008=



000
FTUS44 KLIX 131100 RRA
TAFNEW
TAF
KNEW 131143Z 1312/1412 14010KT P6SM FEW015 SCT250
     FM131500 16014KT P6SM BKN020
     FM131700 17017G23KT P6SM BKN035
     FM140100 17014G21KT P6SM OVC012
     FM140900 17013KT P6SM OVC008=



000
FTUS44 KLIX 131100 RRA
TAFNEW
TAF
KNEW 131143Z 1312/1412 14010KT P6SM FEW015 SCT250
     FM131500 16014KT P6SM BKN020
     FM131700 17017G23KT P6SM BKN035
     FM140100 17014G21KT P6SM OVC012
     FM140900 17013KT P6SM OVC008=



000
FTUS44 KLIX 131100 RRA
TAFBTR
TAF
KBTR 131143Z 1312/1412 14007KT P6SM BKN008 BKN010
     FM131400 16012KT P6SM BKN015
     FM131700 18016G25KT P6SM BKN035
     FM140300 15014KT P6SM VCTS OVC008CB
     FM141100 18009KT P6SM VCTS BKN005 OVC015CB=



000
FTUS44 KLIX 131100 RRA
TAFMCB
TAF
KMCB 131143Z 1312/1412 16004KT P6SM SCT018 BKN035 OVC045
      TEMPO 1312/1314 BKN018
     FM131400 17012G20KT P6SM BKN020
     FM131700 17015G22KT P6SM BKN040
     FM140400 16014KT P6SM VCTS OVC008CB
     FM141000 17009KT P6SM VCTS BKN004 OVC012CB=



    US Dept of Commerce
    National Oceanic and Atmospheric Administration
    National Weather Service
    1325 East West Highway
    Silver Spring, MD 20910
    Page Author: NWS Internet Services Team
Disclaimer
Information Quality
Credits
Glossary
Privacy Policy
Freedom of Information Act (FOIA)
About Us
Career Opportunities